createdAt,value
2018-12-08T19:07:48.806Z,97.60
2018-12-08T19:13:52.943Z,97.30
2018-12-08T19:19:57.915Z,96.80
2018-12-08T19:26:02.400Z,95.40
2018-12-08T19:32:06.930Z,96.80
2018-12-08T19:38:12.127Z,95.70
2018-12-08T19:44:17.991Z,94.90
2018-12-08T19:50:21.800Z,95.90
2018-12-08T19:56:26.818Z,95.00
2018-12-08T20:02:31.960Z,96.90
2018-12-08T20:08:37.262Z,96.40
2018-12-08T20:14:41.161Z,95.30
2018-12-08T20:20:44.633Z,92.90
2018-12-08T20:26:49.792Z,93.30
2018-12-08T20:32:54.930Z,94.00
2018-12-08T20:38:58.930Z,96.60
2018-12-08T20:45:02.364Z,93.90
2018-12-08T20:51:06.336Z,93.30
2018-12-08T20:57:11.112Z,92.80
2018-12-08T21:03:14.648Z,93.10
2018-12-08T21:09:19.098Z,93.30
2018-12-08T21:15:22.733Z,92.10
2018-12-08T21:21:26.496Z,94.00
2018-12-08T21:27:29.965Z,93.30
2018-12-08T21:33:33.552Z,91.60
2018-12-08T21:39:37.963Z,92.50
2018-12-08T21:45:41.540Z,92.30
2018-12-08T21:51:46.168Z,92.30
2018-12-08T21:57:50.647Z,90.20
2018-12-08T22:03:54.117Z,91.50
2018-12-08T22:09:57.682Z,90.40
2018-12-08T22:16:03.206Z,90.80
2018-12-08T22:22:06.662Z,90.70
2018-12-08T22:28:10.132Z,90.20
2018-12-08T22:34:14.815Z,90.60
2018-12-08T22:40:19.324Z,91.20
2018-12-08T22:46:22.775Z,91.30
2018-12-08T22:52:26.284Z,90.60
2018-12-08T22:58:30.632Z,91.30
2018-12-08T23:04:36.389Z,91.10
2018-12-08T23:10:42.507Z,90.50
2018-12-08T23:16:47.186Z,91.70
2018-12-08T23:22:51.757Z,89.20
2018-12-08T23:28:56.344Z,93.70
2018-12-08T23:35:01.047Z,89.00
2018-12-08T23:41:04.572Z,91.90
2018-12-08T23:47:10.779Z,97.10
2018-12-08T23:53:14.583Z,98.20
2018-12-08T23:59:19.625Z,95.90
